Current Weather Conditions: station 44139

sailwx.info

Wind from 040 at 13 knots gusting 17

Wave height 3.1 meters (10 feet), 13 second period

Air temperature -0.7° C
Water temperature 5.9° C

Last reported at 2016-Feb-14 18:00 UTC.
Time now 2016-Feb-14 19:01 UTC

Location: N 44°12' W 057°06'.
View on Google Maps.

See reports from other nearby stations

  
Tides and Currents Weather Stations Pressure Air Temp Water Temp Dewpoint Dewpoint Depression Visibility Wind Speed Wind Dir Waves Ship Positions
date/time (UTC)wind fromknots sea level pressurealtimeterstation pressurevisibilityair tempwater tempwave heightnotes
2016-Feb-14 18:00 040 13 gusting 17 -0.7 5.9 3.1
2016-Feb-14 17:00 050 11 gusting 15 -0.8 5.9 3.3
2016-Feb-14 16:00 040 9 gusting 13 -0.6 5.9 3.8
2016-Feb-14 15:00 030 7 gusting 9 -0.6 5.9 3.9
2016-Feb-14 14:00 350 7 gusting 13 -0.6 5.8 3.9
2016-Feb-14 13:00 320 9 gusting 13 -0.5 5.7 4.3
2016-Feb-14 12:00 320 7 gusting 13 -0.7 5.7 4.0
2016-Feb-14 11:00 310 9 gusting 15 -0.8 5.8 4.2
2016-Feb-14 10:00 300 11 gusting 17 -0.5 5.8 4.4
2016-Feb-14 09:00 290 11 gusting 15 -0.4 5.8 4.0
2016-Feb-14 08:00 290 13 gusting 17 -0.5 5.8 4.2
2016-Feb-14 07:00 310 11 gusting 19 -0.6 5.8 4.6
2016-Feb-14 06:00 310 21 gusting 27 0.2 5.9 4.6
2016-Feb-14 05:00 300 19 gusting 23 0.8 6.0 4.4
2016-Feb-14 04:00 300 21 1.0
2016-Feb-14 03:00 310 21 gusting 27 2.0 6.1 4.7
2016-Feb-14 02:00 130 3 gusting 9 4.6 6.1 5.2
2016-Feb-14 01:00 100 13 gusting 15 3.1 6.0 4.6
2016-Feb-14 00:00
2016-Feb-13 23:00 050 19 gusting 23 1.4 5.8 4.6
2016-Feb-13 22:00 030 23 gusting 29 1.0 5.7 4.7
2016-Feb-13 21:00 020 27 gusting 33 0.7 5.5 4.7
2016-Feb-13 20:00 350 31 gusting 38 0.8 5.5 5.0
2016-Feb-13 19:00 0.9 5.3 4.3
2016-Feb-13 18:00 010 34 gusting 46 0.9 4.9 4.2
2016-Feb-13 17:00 020 33 gusting 40 1.6 4.7 3.5
2016-Feb-13 16:00 050 33 gusting 42 0.8 4.5 3.9
2016-Feb-13 14:00 060 23 gusting 31 0.5 4.6 3.6
2016-Feb-13 13:00 060 21 gusting 25 0.3 4.6 3.6
2016-Feb-13 12:00 070 13 gusting 19 -0.5 4.9 3.9
2016-Feb-13 11:00 090 11
2016-Feb-13 10:00 040 3 gusting 7 -0.9 4.7 4.2
2016-Feb-13 09:00 340 1 gusting 5 -1.2 4.7 3.9
2016-Feb-13 08:00 280 5 gusting 9 -1.2 4.7 4.2
2016-Feb-13 07:00 270 7 gusting 13 -1.2 4.7 4.6
2016-Feb-13 06:00 270 11 -1.2 4.9
2016-Feb-13 05:00 280 13 gusting 19 -1.1 4.7 4.7
2016-Feb-13 04:00 270 15 gusting 21 -0.9 4.5 5.5
2016-Feb-13 03:00 270 19 gusting 23 -0.7 4.5 5.5
2016-Feb-13 02:00 250 23 gusting 29 0.1 4.4 5.2
2016-Feb-13 01:00 250 23 gusting 29 0.2 4.5 5.2
2016-Feb-13 00:00 260 19 gusting 27 -0.6 4.6 5.2
2016-Feb-12 23:00 260 19 gusting 25 -0.2 4.9 5.2
2016-Feb-12 22:00 260 19 gusting 23 -1.1 4.8 4.8
2016-Feb-12 21:00 270 21 gusting 25 -0.9 4.6 4.8
2016-Feb-12 20:00 280 23 gusting 31 -0.8 4.7 4.0